sensor_id;sensor_type;location;lat;lon;timestamp;P1;durP1;ratioP1;P2;durP2;ratioP2
31087;SDS011;17745;55.914;37.554;2023-07-29T00:00:40;5.65;;;3.45;;
31087;SDS011;17745;55.914;37.554;2023-07-29T00:03:14;6.37;;;2.85;;
31087;SDS011;17745;55.914;37.554;2023-07-29T00:05:43;7.90;;;3.28;;
31087;SDS011;17745;55.914;37.554;2023-07-29T00:08:13;8.95;;;3.40;;
31087;SDS011;17745;55.914;37.554;2023-07-29T00:10:42;7.20;;;3.55;;
31087;SDS011;17745;55.914;37.554;2023-07-29T00:13:12;4.78;;;2.58;;
31087;SDS011;17745;55.914;37.554;2023-07-29T00:15:42;5.40;;;2.85;;
31087;SDS011;17745;55.914;37.554;2023-07-29T00:18:13;8.15;;;3.60;;
31087;SDS011;17745;55.914;37.554;2023-07-29T00:20:46;6.78;;;3.15;;
31087;SDS011;17745;55.914;37.554;2023-07-29T00:26:04;7.55;;;3.08;;
31087;SDS011;17745;55.914;37.554;2023-07-29T00:28:34;5.82;;;3.15;;
31087;SDS011;17745;55.914;37.554;2023-07-29T00:31:03;5.97;;;3.22;;
31087;SDS011;17745;55.914;37.554;2023-07-29T00:33:39;9.27;;;3.12;;
31087;SDS011;17745;55.914;37.554;2023-07-29T00:36:10;6.05;;;3.50;;
31087;SDS011;17745;55.914;37.554;2023-07-29T00:38:39;8.35;;;3.80;;
31087;SDS011;17745;55.914;37.554;2023-07-29T00:41:37;8.00;;;3.45;;
31087;SDS011;17745;55.914;37.554;2023-07-29T00:44:14;6.70;;;3.53;;
31087;SDS011;17745;55.914;37.554;2023-07-29T00:46:44;8.45;;;3.22;;
31087;SDS011;17745;55.914;37.554;2023-07-29T00:49:16;5.20;;;3.30;;
31087;SDS011;17745;55.914;37.554;2023-07-29T00:51:44;4.93;;;3.08;;
31087;SDS011;17745;55.914;37.554;2023-07-29T00:54:13;7.53;;;3.47;;
31087;SDS011;17745;55.914;37.554;2023-07-29T00:56:41;6.10;;;3.45;;
31087;SDS011;17745;55.914;37.554;2023-07-29T00:59:11;6.55;;;3.25;;
31087;SDS011;17745;55.914;37.554;2023-07-29T01:01:42;5.12;;;3.10;;
31087;SDS011;17745;55.914;37.554;2023-07-29T01:04:12;6.05;;;3.47;;
31087;SDS011;17745;55.914;37.554;2023-07-29T01:06:47;7.10;;;3.40;;
31087;SDS011;17745;55.914;37.554;2023-07-29T01:09:36;6.60;;;3.25;;
31087;SDS011;17745;55.914;37.554;2023-07-29T01:12:14;7.10;;;3.55;;
31087;SDS011;17745;55.914;37.554;2023-07-29T01:14:56;7.10;;;3.72;;
31087;SDS011;17745;55.914;37.554;2023-07-29T01:17:33;7.78;;;3.45;;
31087;SDS011;17745;55.914;37.554;2023-07-29T01:20:16;8.52;;;3.80;;
31087;SDS011;17745;55.914;37.554;2023-07-29T01:22:51;6.65;;;3.42;;
31087;SDS011;17745;55.914;37.554;2023-07-29T01:25:25;6.68;;;3.42;;
31087;SDS011;17745;55.914;37.554;2023-07-29T01:27:55;10.95;;;3.72;;
31087;SDS011;17745;55.914;37.554;2023-07-29T01:30:29;7.65;;;4.00;;
31087;SDS011;17745;55.914;37.554;2023-07-29T01:33:02;6.15;;;3.87;;
31087;SDS011;17745;55.914;37.554;2023-07-29T01:35:39;9.15;;;4.12;;
31087;SDS011;17745;55.914;37.554;2023-07-29T01:38:13;7.93;;;4.37;;
31087;SDS011;17745;55.914;37.554;2023-07-29T01:40:50;6.90;;;3.72;;
31087;SDS011;17745;55.914;37.554;2023-07-29T01:43:20;8.60;;;4.53;;
31087;SDS011;17745;55.914;37.554;2023-07-29T01:45:53;7.25;;;4.18;;
31087;SDS011;17745;55.914;37.554;2023-07-29T01:48:25;6.85;;;4.70;;
31087;SDS011;17745;55.914;37.554;2023-07-29T01:51:04;7.72;;;4.20;;
31087;SDS011;17745;55.914;37.554;2023-07-29T01:53:38;7.22;;;4.55;;
31087;SDS011;17745;55.914;37.554;2023-07-29T01:56:12;6.25;;;3.55;;
31087;SDS011;17745;55.914;37.554;2023-07-29T01:58:48;9.43;;;4.35;;
31087;SDS011;17745;55.914;37.554;2023-07-29T02:01:17;8.23;;;4.25;;
31087;SDS011;17745;55.914;37.554;2023-07-29T02:03:46;6.62;;;4.10;;
31087;SDS011;17745;55.914;37.554;2023-07-29T02:06:21;7.65;;;4.82;;
31087;SDS011;17745;55.914;37.554;2023-07-29T02:08:56;7.05;;;5.10;;
31087;SDS011;17745;55.914;37.554;2023-07-29T02:11:35;11.55;;;4.32;;
31087;SDS011;17745;55.914;37.554;2023-07-29T02:14:05;8.85;;;3.95;;
31087;SDS011;17745;55.914;37.554;2023-07-29T02:16:40;8.65;;;4.70;;
31087;SDS011;17745;55.914;37.554;2023-07-29T02:19:37;8.60;;;4.75;;
31087;SDS011;17745;55.914;37.554;2023-07-29T02:22:13;8.40;;;4.75;;
31087;SDS011;17745;55.914;37.554;2023-07-29T02:24:49;8.15;;;4.70;;
31087;SDS011;17745;55.914;37.554;2023-07-29T02:27:22;8.25;;;5.05;;
31087;SDS011;17745;55.914;37.554;2023-07-29T02:30:01;7.72;;;5.12;;
31087;SDS011;17745;55.914;37.554;2023-07-29T02:32:34;9.63;;;4.62;;
31087;SDS011;17745;55.914;37.554;2023-07-29T02:35:14;7.93;;;3.90;;
31087;SDS011;17745;55.914;37.554;2023-07-29T02:38:00;7.35;;;4.18;;
31087;SDS011;17745;55.914;37.554;2023-07-29T02:40:51;12.20;;;4.75;;
31087;SDS011;17745;55.914;37.554;2023-07-29T02:50:41;5.85;;;3.97;;
31087;SDS011;17745;55.914;37.554;2023-07-29T02:53:10;5.62;;;3.12;;
31087;SDS011;17745;55.914;37.554;2023-07-29T02:55:41;7.12;;;4.68;;
31087;SDS011;17745;55.914;37.554;2023-07-29T02:58:13;9.40;;;5.10;;
31087;SDS011;17745;55.914;37.554;2023-07-29T03:00:43;6.72;;;4.65;;
31087;SDS011;17745;55.914;37.554;2023-07-29T03:03:14;10.23;;;4.95;;
31087;SDS011;17745;55.914;37.554;2023-07-29T03:06:15;9.98;;;5.43;;
31087;SDS011;17745;55.914;37.554;2023-07-29T03:09:02;10.45;;;5.45;;
31087;SDS011;17745;55.914;37.554;2023-07-29T03:11:37;12.40;;;6.53;;
31087;SDS011;17745;55.914;37.554;2023-07-29T03:14:13;7.82;;;5.03;;
31087;SDS011;17745;55.914;37.554;2023-07-29T03:16:48;11.02;;;5.07;;
31087;SDS011;17745;55.914;37.554;2023-07-29T03:19:31;9.20;;;5.15;;
31087;SDS011;17745;55.914;37.554;2023-07-29T03:22:14;8.30;;;5.37;;
31087;SDS011;17745;55.914;37.554;2023-07-29T03:24:55;6.65;;;4.95;;
31087;SDS011;17745;55.914;37.554;2023-07-29T03:27:26;6.85;;;5.10;;
31087;SDS011;17745;55.914;37.554;2023-07-29T03:29:59;8.73;;;4.85;;
31087;SDS011;17745;55.914;37.554;2023-07-29T03:32:39;7.95;;;4.80;;
31087;SDS011;17745;55.914;37.554;2023-07-29T03:35:31;6.28;;;4.03;;
31087;SDS011;17745;55.914;37.554;2023-07-29T03:39:28;11.73;;;4.70;;
31087;SDS011;17745;55.914;37.554;2023-07-29T03:42:17;7.30;;;5.20;;
31087;SDS011;17745;55.914;37.554;2023-07-29T03:45:15;8.48;;;5.15;;
31087;SDS011;17745;55.914;37.554;2023-07-29T13:36:56;10.75;;;3.65;;
31087;SDS011;17745;55.914;37.554;2023-07-29T13:39:28;8.52;;;2.53;;
31087;SDS011;17745;55.914;37.554;2023-07-29T13:41:59;17.83;;;3.17;;
31087;SDS011;17745;55.914;37.554;2023-07-29T13:44:30;6.05;;;2.70;;
31087;SDS011;17745;55.914;37.554;2023-07-29T13:47:00;6.10;;;3.17;;
31087;SDS011;17745;55.914;37.554;2023-07-29T13:49:35;9.98;;;3.65;;
31087;SDS011;17745;55.914;37.554;2023-07-29T13:55:13;9.25;;;2.87;;
31087;SDS011;17745;55.914;37.554;2023-07-29T13:57:46;5.65;;;2.75;;
31087;SDS011;17745;55.914;37.554;2023-07-29T14:00:18;7.03;;;3.33;;
31087;SDS011;17745;55.914;37.554;2023-07-29T14:02:57;18.02;;;3.80;;
31087;SDS011;17745;55.914;37.554;2023-07-29T14:05:28;9.75;;;3.70;;
31087;SDS011;17745;55.914;37.554;2023-07-29T14:08:09;6.43;;;3.08;;
31087;SDS011;17745;55.914;37.554;2023-07-29T14:10:41;12.15;;;3.62;;
31087;SDS011;17745;55.914;37.554;2023-07-29T14:13:17;5.97;;;2.92;;
